createdAt,value
2022-11-30T00:00:29.163Z,30.37
2022-11-30T00:05:51.309Z,29.60
2022-11-30T00:11:17.699Z,30.70
2022-11-30T00:16:39.480Z,30.07
2022-11-30T00:22:01.233Z,29.80
2022-11-30T00:27:22.927Z,31.60
2022-11-30T00:32:44.626Z,32.50
2022-11-30T00:38:06.324Z,32.03
2022-11-30T00:43:38.791Z,31.10
2022-11-30T00:49:00.503Z,29.90
2022-11-30T00:54:22.240Z,30.40
2022-11-30T00:59:43.902Z,30.30
2022-11-30T01:05:06.100Z,31.87
2022-11-30T01:10:27.887Z,29.43
2022-11-30T01:15:49.723Z,28.57
2022-11-30T01:21:13.718Z,29.93
2022-11-30T01:26:35.778Z,29.70
2022-11-30T01:31:57.488Z,29.13
2022-11-30T01:37:19.246Z,29.40
2022-11-30T01:42:45.885Z,29.67
2022-11-30T01:48:08.872Z,28.23
2022-11-30T01:53:30.689Z,28.93
2022-11-30T01:58:52.910Z,28.87
2022-11-30T02:04:20.787Z,28.63
2022-11-30T02:09:44.218Z,27.27
2022-11-30T02:15:11.921Z,26.40
2022-11-30T02:20:59.238Z,27.23
2022-11-30T02:26:51.562Z,26.53
2022-11-30T02:32:16.299Z,26.90
2022-11-30T02:37:39.337Z,25.57
2022-11-30T02:43:04.668Z,25.87
2022-11-30T02:48:52.559Z,24.47
2022-11-30T02:54:14.362Z,24.77
2022-11-30T02:59:36.207Z,25.13
2022-11-30T03:04:57.898Z,22.03
2022-11-30T03:10:19.660Z,23.53
2022-11-30T03:15:41.419Z,22.97
2022-11-30T03:21:08.178Z,22.67
2022-11-30T03:26:29.953Z,22.10
2022-11-30T03:31:51.641Z,20.73
2022-11-30T03:37:13.421Z,21.40
2022-11-30T03:42:35.279Z,20.73
2022-11-30T03:47:56.940Z,20.73
2022-11-30T03:53:23.575Z,20.93
2022-11-30T03:58:45.332Z,20.80
2022-11-30T04:04:07.568Z,21.70
2022-11-30T04:09:29.249Z,20.80
2022-11-30T04:14:50.935Z,20.83
2022-11-30T04:20:12.803Z,19.83
2022-11-30T04:25:34.485Z,20.47
2022-11-30T04:30:56.328Z,20.30
2022-11-30T04:36:19.711Z,20.47
2022-11-30T04:41:41.392Z,19.63
2022-11-30T04:47:03.125Z,19.47
2022-11-30T04:52:24.873Z,20.60
2022-11-30T04:57:47.103Z,19.53
2022-11-30T05:03:08.817Z,18.47
2022-11-30T05:08:30.903Z,19.47
2022-11-30T05:13:52.582Z,19.50
2022-11-30T05:19:14.781Z,19.53
2022-11-30T05:24:36.492Z,19.63
2022-11-30T05:29:58.862Z,18.87
2022-11-30T05:35:20.561Z,18.30
2022-11-30T05:40:42.247Z,18.90
2022-11-30T05:46:05.991Z,18.10
2022-11-30T05:51:27.691Z,17.50
2022-11-30T05:56:54.492Z,17.10
2022-11-30T06:02:16.930Z,17.37
2022-11-30T06:07:38.684Z,16.70
2022-11-30T06:13:06.529Z,17.23
2022-11-30T06:18:28.481Z,17.47
2022-11-30T06:23:50.162Z,16.33
2022-11-30T06:29:11.884Z,16.90
2022-11-30T06:34:33.642Z,16.47
2022-11-30T06:40:06.358Z,16.50
2022-11-30T06:45:28.567Z,16.30
2022-11-30T06:50:50.413Z,16.67
2022-11-30T06:56:12.490Z,16.77
2022-11-30T07:01:34.249Z,16.40
2022-11-30T07:06:56.499Z,16.93
2022-11-30T07:12:18.289Z,15.27
2022-11-30T07:17:40.039Z,15.50
2022-11-30T07:23:22.024Z,16.07
2022-11-30T07:28:46.597Z,16.00
2022-11-30T07:34:09.419Z,15.50
2022-11-30T07:39:31.217Z,16.67
2022-11-30T07:44:58.352Z,16.70
2022-11-30T07:50:20.611Z,15.70
2022-11-30T07:55:43.023Z,16.67
2022-11-30T08:01:11.245Z,16.13
2022-11-30T08:06:33.133Z,17.23
2022-11-30T08:11:54.868Z,18.00
2022-11-30T08:17:16.639Z,18.03
2022-11-30T08:22:38.355Z,18.67
2022-11-30T08:28:00.087Z,17.83
2022-11-30T08:33:21.814Z,20.57
2022-11-30T08:38:47.907Z,20.20
2022-11-30T08:44:09.714Z,20.27
2022-11-30T08:49:31.409Z,21.80
2022-11-30T08:54:53.361Z,21.90
2022-11-30T09:00:16.049Z,21.00
2022-11-30T09:05:37.777Z,21.80
2022-11-30T09:10:59.570Z,21.70
2022-11-30T09:16:21.668Z,21.77
2022-11-30T09:21:49.794Z,19.17
2022-11-30T09:27:13.247Z,21.00
2022-11-30T09:32:34.970Z,22.63
2022-11-30T09:37:56.671Z,21.70
2022-11-30T09:44:01.396Z,21.93
2022-11-30T09:49:26.761Z,21.27
2022-11-30T09:54:49.057Z,21.43
2022-11-30T10:00:21.630Z,20.90
2022-11-30T10:05:56.605Z,20.80
2022-11-30T10:11:28.213Z,21.40
2022-11-30T10:17:15.049Z,20.83
2022-11-30T10:22:52.019Z,20.27
2022-11-30T10:28:45.637Z,21.48
2022-11-30T10:34:16.426Z,20.80
2022-11-30T10:40:00.276Z,19.53
2022-11-30T10:45:23.808Z,21.13
2022-11-30T10:50:45.846Z,19.87
2022-11-30T10:56:11.135Z,21.87
2022-11-30T11:01:41.599Z,20.10
2022-11-30T11:07:10.691Z,19.97
2022-11-30T11:12:32.892Z,17.60
2022-11-30T11:18:19.754Z,19.67
2022-11-30T11:23:43.551Z,20.40
2022-11-30T11:29:05.306Z,19.47
2022-11-30T11:34:36.329Z,18.53
2022-11-30T11:40:02.191Z,17.50
2022-11-30T11:45:27.928Z,17.50
2022-11-30T11:51:10.368Z,18.60
2022-11-30T11:56:37.169Z,17.77
2022-11-30T12:02:05.616Z,15.97
2022-11-30T12:07:56.204Z,15.40
2022-11-30T12:13:22.035Z,16.80
2022-11-30T12:19:02.171Z,16.80
2022-11-30T12:24:48.806Z,16.50
2022-11-30T12:30:29.080Z,15.13
2022-11-30T12:36:12.560Z,15.43
2022-11-30T12:41:54.675Z,15.40
2022-11-30T12:47:45.511Z,15.90
2022-11-30T12:53:19.614Z,16.27
2022-11-30T12:58:52.509Z,15.60
2022-11-30T13:04:57.660Z,17.07
2022-11-30T13:10:30.234Z,17.77
2022-11-30T13:15:52.649Z,17.10
2022-11-30T13:21:26.804Z,17.48
2022-11-30T13:27:18.133Z,17.23
2022-11-30T13:38:37.036Z,16.13
2022-11-30T13:43:59.725Z,17.10
2022-11-30T13:49:23.456Z,15.75
2022-11-30T13:54:50.800Z,15.73
2022-11-30T14:00:31.334Z,14.80
2022-11-30T14:05:55.135Z,15.33
2022-11-30T14:11:36.836Z,15.07
2022-11-30T14:16:59.251Z,14.47
2022-11-30T14:22:21.721Z,14.45
2022-11-30T14:27:44.423Z,15.70
2022-11-30T14:33:19.331Z,16.13
2022-11-30T14:38:42.439Z,14.80
2022-11-30T14:44:13.105Z,16.13
2022-11-30T14:49:34.873Z,17.10
2022-11-30T14:55:20.287Z,15.30
2022-11-30T15:00:44.979Z,15.33
2022-11-30T15:06:06.895Z,16.33
2022-11-30T15:11:29.164Z,15.07
2022-11-30T15:17:03.692Z,16.80
2022-11-30T15:22:25.481Z,17.10
2022-11-30T15:27:47.528Z,16.77
2022-11-30T15:33:23.267Z,17.05
2022-11-30T15:38:50.552Z,17.33
2022-11-30T15:44:37.069Z,18.48
2022-11-30T15:49:58.764Z,17.50
2022-11-30T15:55:40.299Z,18.48
2022-11-30T16:01:11.938Z,19.30
2022-11-30T16:06:45.079Z,19.40
2022-11-30T16:12:20.448Z,18.43
2022-11-30T16:17:42.226Z,18.30
2022-11-30T16:23:05.976Z,18.57
2022-11-30T16:28:27.931Z,20.10
2022-11-30T16:33:49.987Z,19.63
2022-11-30T16:39:12.740Z,20.23
2022-11-30T16:44:34.476Z,19.40
2022-11-30T16:49:56.296Z,18.97
2022-11-30T16:55:20.792Z,20.93
2022-11-30T17:00:42.582Z,20.33
2022-11-30T17:06:13.592Z,18.33
2022-11-30T17:11:37.531Z,18.83
2022-11-30T17:17:03.191Z,19.90
2022-11-30T17:22:25.161Z,19.63
2022-11-30T17:27:48.521Z,19.27
2022-11-30T17:33:10.321Z,18.73
2022-11-30T17:38:32.985Z,18.07
2022-11-30T17:43:54.760Z,16.60
2022-11-30T17:49:16.592Z,16.57
2022-11-30T17:54:38.413Z,16.50
2022-11-30T18:00:00.168Z,15.60
2022-11-30T18:05:22.229Z,15.53
2022-11-30T18:10:46.103Z,15.20
2022-11-30T18:16:10.636Z,14.63
2022-11-30T18:21:32.354Z,14.67
2022-11-30T18:26:54.084Z,14.85
2022-11-30T18:32:15.785Z,12.90
2022-11-30T18:37:37.675Z,14.73
2022-11-30T18:42:59.458Z,15.03
2022-11-30T18:48:21.138Z,14.37
2022-11-30T18:53:44.264Z,15.37
2022-11-30T18:59:13.285Z,16.20
2022-11-30T19:04:35.028Z,16.83
2022-11-30T19:09:56.766Z,17.23
2022-11-30T19:15:18.541Z,16.83
2022-11-30T19:20:41.002Z,16.43
2022-11-30T19:26:04.086Z,17.27
2022-11-30T19:31:26.852Z,16.83
2022-11-30T19:36:49.137Z,17.20
2022-11-30T19:42:11.315Z,16.80
2022-11-30T19:47:33.128Z,16.67
2022-11-30T19:52:54.983Z,17.17
2022-11-30T19:58:16.825Z,16.60
2022-11-30T20:03:38.640Z,16.40
2022-11-30T20:09:00.454Z,16.43
2022-11-30T20:14:23.088Z,15.57
2022-11-30T20:19:44.891Z,15.00
2022-11-30T20:25:06.857Z,14.33
2022-11-30T20:30:28.753Z,13.87
2022-11-30T20:35:50.660Z,14.13
2022-11-30T20:41:18.460Z,15.03
2022-11-30T20:46:40.600Z,14.70
2022-11-30T20:52:02.864Z,15.50
2022-11-30T20:57:24.692Z,13.90
2022-11-30T21:02:46.574Z,14.33
2022-11-30T21:08:08.542Z,14.83
2022-11-30T21:13:30.561Z,14.73
2022-11-30T21:18:52.478Z,14.83
2022-11-30T21:24:14.322Z,13.13
2022-11-30T21:29:36.237Z,13.53
2022-11-30T21:34:58.076Z,13.10
2022-11-30T21:40:19.785Z,12.27
2022-11-30T21:45:41.504Z,12.63
2022-11-30T21:51:15.204Z,12.63
2022-11-30T21:56:38.975Z,13.50
2022-11-30T22:02:00.851Z,13.23
2022-11-30T22:07:31.723Z,12.83
2022-11-30T22:12:53.623Z,14.23
2022-11-30T22:18:15.490Z,14.00
2022-11-30T22:23:39.464Z,13.40
2022-11-30T22:29:06.838Z,13.77
2022-11-30T22:34:29.208Z,14.53
2022-11-30T22:39:51.151Z,14.23
2022-11-30T22:45:12.970Z,13.37
2022-11-30T22:50:35.087Z,15.57
2022-11-30T22:56:01.938Z,16.43
2022-11-30T23:01:26.127Z,16.43
2022-11-30T23:06:49.408Z,16.80
2022-11-30T23:12:20.343Z,17.03
2022-11-30T23:17:51.820Z,17.93
2022-11-30T23:23:13.545Z,18.43
2022-11-30T23:28:35.432Z,19.27
2022-11-30T23:33:57.151Z,19.53
2022-11-30T23:39:20.009Z,19.00
2022-11-30T23:44:41.708Z,18.20
2022-11-30T23:50:05.456Z,19.50
2022-11-30T23:55:28.383Z,19.80
